ダラス/フォートワース の空港の天気 - METARとTAF

ダラス・フォートワース国際空港 ( KDFW / DFW ) - アメリカ テキサス州ダラス & フォートワース
飛行場実況気象(Metar)
観測時間12/03 19:53 CST (12/04 01:53 UTC)
風向・風速北西 6m/s
視程10km以上
天気現象
全天を覆う雲 雲底高度 640m
気温5.6℃
湿度73%
気圧1024.4hPa
METARKDFW 040153Z 31012KT 10SM OVC021 06/01 A3025 RMK AO2 SLP244 T00560011
過去の天気等 Google飛行場航空写真 Wunderground天気予報

過去48時間のMETAR

飛行場予報(TAF)
発表時間: 12/03 17:24 CST (12/03 23:24 UTC)
予報対象時間: 3日18時 CST ~ 5日0時 CST
風向・風速北西 6m/s
視程10km以上
全天を覆う雲 雲底高度 610m
3日21時 CST から
風向・風速北北西 5m/s
視程10km以上
全天を覆う雲 雲底高度 1070m
3日21時 CST ~ 3日24時 CST に一時的に
全天の8割程度の雲 雲底高度 760m
4日0時 CST から
風向・風速北西 4m/s
視程10km以上
全天の4割程度の雲 雲底高度 1220m
4日2時 CST から
風向・風速西北西 4m/s
視程10km以上
少しの雲 雲底高度 4570m
KDFW 032324Z 0400/0506 32011KT P6SM OVC020
FM040300 33009KT P6SM OVC035
TEMPO 0403/0406 BKN025
FM040600 32008KT P6SM SCT040
FM040800 30007KT P6SM FEW150